EDDF/FRA METAR and TAF weather

Enter ICAO airport designator
Station Type Date Time Source
EDDF METAR 2020/01/18 21:20 UTC NOAA

EDDF 182120Z 24006KT 9999 FEW030TCU 03/00 Q1028 NOSIG


Station Type Date Time Source
EDDF Decoded METAR 2020/01/18 21:20 UTC NOAA

Frankfurt / M-Flughafen, Germany (EDDF) 50-03N 008-36E 113M
Jan 18, 2020 - 04:20 PM EST / 2020.01.18 2120 UTC
Wind: from the WSW (240 degrees) at 7 MPH (6 KT):0
Visibility: greater than 7 mile(s):0
Sky conditions: mostly clear
Weather: Towering cumulus clouds observed
Temperature: 37 F (3 C)
Dew Point: 32 F (0 C)
Relative Humidity: 80%
Pressure (altimeter): 30.36 in. Hg (1028 hPa)
ob: EDDF 182120Z 24006KT 9999 FEW030TCU 03/00 Q1028 NOSIG
cycle: 21

Station Type Date Time Source
EDDF TAF 2020/01/18 18:28 UTC NOAA

TAF EDDF 181700Z 1818/1924 23005KT 9999 SCT035 PROB30
TEMPO 1818/1822 4000 SHRASN BKN012CB PROB40
TEMPO 1822/1908 2000 SHSN BKN008CB
BECMG 1907/1909 29005KT PROB30
TEMPO 1908/1918 4000 SHRASN BKN012CB
BECMG 1911/1913 35005KT

Example: see airport list